Azamara Quest — V7DM6 — position and weather

sailwx.info

Track history (hours):
 
Tides and Currents Weather Stations Pressure Air Temp Water Temp Dewpoint Dewpoint Depression Visibility Wind Speed Wind Dir Waves Ship Positions

Azamara Quest

Last reported at 2017-Nov-24 09:30 UTC. Time now 2017-Nov-24 09:33 UTC.
Position N 54°01' E 007°57'.

Length 184 m; draft 11.1 m.

Type: Tanker. MMSI: 538005401.

Date/timePositionNaut miles runAvg speedWind from/ knotsBaromVisibWave heightAir tempDewpointWater temp
2017-Nov-24 09:30N 54°01' E 007°57'713.1
2017-Nov-24 09:00N 54°03' E 007°47'48 5.8
2017-Nov-24 00:38N 54°44' E 007°03'111.3
2017-Nov-24 00:30N 54°46' E 007°02'611.4
2017-Nov-24 00:00N 54°51' E 006°58'611.2
2017-Nov-23 23:30N 54°56' E 006°55'611.2
2017-Nov-23 23:00N 55°01' E 006°51'510.9
2017-Nov-23 22:30N 55°06' E 006°48'510.3
2017-Nov-23 22:00N 55°11' E 006°44'4 8.1
2017-Nov-23 21:30N 55°15' E 006°45'4 8.5
2017-Nov-23 21:00N 55°20' E 006°46'6 8.5
2017-Nov-23 20:21N 55°25' E 006°46'4 9.0
2017-Nov-23 19:57N 55°29' E 006°47'4 9.2
2017-Nov-23 19:30N 55°33' E 006°47'187 8.0
2017-Nov-22 20:00N 57°51' E 010°36'612.5
2017-Nov-22 19:30N 57°48' E 010°47'  
2017-Nov-20 00:06N 59°59' E 026°12'111.8
2017-Nov-20 00:00N 59°59' E 026°14'612.9
2017-Nov-19 23:30N 60°01' E 026°27'611.2
2017-Nov-19 23:01N 60°01' E 026°38'611.7
2017-Nov-19 22:30N 60°00' E 026°49'1411.5
2017-Nov-19 21:16N 60°04' E 027°17'310.7
2017-Nov-19 21:00N 60°05' E 027°22'5 9.8
2017-Nov-19 20:30N 60°08' E 027°30'612.6
2017-Nov-19 20:00N 60°11' E 027°41'510.4
2017-Nov-19 19:30N 60°11' E 027°51'611.8
2017-Nov-19 19:00N 60°10' E 028°03'612.7
2017-Nov-19 18:30N 60°08' E 028°15'510.3
2017-Nov-19 18:01N 60°08' E 028°26'510.4
2017-Nov-19 17:30N 60°09' E 028°36'510.3
2017-Nov-19 17:00N 60°12' E 028°45'4 8.9
2017-Nov-19 16:30N 60°16' E 028°47'3 6.8
2017-Nov-19 16:00N 60°19' E 028°44'0 0.1
2017-Nov-19 15:26N 60°19' E 028°44'0 0.0
2017-Nov-19 15:00N 60°19' E 028°44'0 0.0
2017-Nov-19 14:26N 60°19' E 028°44'0 0.0
2017-Nov-19 11:18N 60°19' E 028°44'0 0.0
2017-Nov-19 11:00N 60°19' E 028°44'0 0.0
2017-Nov-19 10:24N 60°19' E 028°44'0 0.0
2017-Nov-19 09:59N 60°19' E 028°44'0 0.0
2017-Nov-19 09:26N 60°19' E 028°44'0 0.0
2017-Nov-19 08:51N 60°19' E 028°44'0 0.0
2017-Nov-19 08:29N 60°19' E 028°44'0 0.0
2017-Nov-19 07:56N 60°19' E 028°44'0 0.0
2017-Nov-19 07:26N 60°19' E 028°44'0 0.0
2017-Nov-19 06:56N 60°19' E 028°44'0 0.0
2017-Nov-19 06:29N 60°19' E 028°44'0 0.0
2017-Nov-19 05:59N 60°19' E 028°44'0 0.0
2017-Nov-19 05:18N 60°19' E 028°44'0 0.0
2017-Nov-19 04:59N 60°19' E 028°44'0 0.0
2017-Nov-19 04:13N 60°19' E 028°44'0 0.0
2017-Nov-19 03:57N 60°19' E 028°44'0 0.0
2017-Nov-19 03:29N 60°19' E 028°44'0 0.0
2017-Nov-19 02:18N 60°19' E 028°44'0 0.0
2017-Nov-19 01:59N 60°19' E 028°44'0 0.0
2017-Nov-19 01:13N 60°19' E 028°44'0 0.0
2017-Nov-19 00:55N 60°19' E 028°44'0 0.0
2017-Nov-19 00:30N 60°19' E 028°44'0 0.0
2017-Nov-18 23:20N 60°19' E 028°44'0 0.0
2017-Nov-18 22:56N 60°19' E 028°44'0 0.0
2017-Nov-18 22:20N 60°19' E 028°44'0 0.0
2017-Nov-18 21:56N 60°19' E 028°44'0 0.0
2017-Nov-18 21:29N 60°19' E 028°44'0 0.0
2017-Nov-18 20:59N 60°19' E 028°44'0 0.0
2017-Nov-18 20:29N 60°19' E 028°44'0 0.0
2017-Nov-18 19:53N 60°19' E 028°44'0 0.0
2017-Nov-18 19:28N 60°19' E 028°44'0 0.0
2017-Nov-18 18:51N 60°19' E 028°44'0 0.0
2017-Nov-18 18:12N 60°19' E 028°44'0 0.0
2017-Nov-18 18:00N 60°19' E 028°44'0 0.0
2017-Nov-18 17:29N 60°19' E 028°44'0 0.0
2017-Nov-18 16:58N 60°19' E 028°44'0 0.0
2017-Nov-18 16:25N 60°19' E 028°44'0 0.0
2017-Nov-18 16:00N 60°19' E 028°44'0 0.0
2017-Nov-18 15:25N 60°19' E 028°44'0 0.0
2017-Nov-18 14:59N 60°19' E 028°44'0 0.0
2017-Nov-18 14:27N 60°19' E 028°44'0 0.0
2017-Nov-18 13:59N 60°19' E 028°44'0 0.0
2017-Nov-18 13:29N 60°19' E 028°44'0 0.0
2017-Nov-18 12:59N 60°19' E 028°44'0 0.0
2017-Nov-18 12:28N 60°19' E 028°44'0 0.0
2017-Nov-18 11:57N 60°19' E 028°44'0 0.3
2017-Nov-18 11:30N 60°19' E 028°44'2 3.8
2017-Nov-18 11:00N 60°17' E 028°45'3 6.9
2017-Nov-18 10:30N 60°14' E 028°48'4 8.8
2017-Nov-18 10:00N 60°11' E 028°43'510.8
2017-Nov-18 09:30N 60°08' E 028°34'510.3
2017-Nov-18 09:00N 60°03' E 028°33'2 4.6
2017-Nov-18 08:30N 60°01' E 028°30'0 0.1
2017-Nov-18 08:00N 60°01' E 028°30'0 0.0
2017-Nov-18 07:30N 60°01' E 028°30'0 0.0
2017-Nov-18 07:00N 60°01' E 028°30'0 0.3
2017-Nov-18 06:30N 60°01' E 028°29'2 4.3
2017-Nov-18 06:00N 60°03' E 028°26'611.4
2017-Nov-18 05:30N 60°06' E 028°18'612.2
2017-Nov-18 05:00N 60°08' E 028°06'612.5
2017-Nov-18 04:30N 60°10' E 027°54'611.6
2017-Nov-18 04:00N 60°09' E 027°42'612.5
2017-Nov-18 03:30N 60°06' E 027°31'612.6
2017-Nov-18 03:00N 60°03' E 027°21'612.7
2017-Nov-18 02:30N 59°60' E 027°10'611.7
2017-Nov-18 02:00N 59°58' E 026°58'713.4
2017-Nov-18 01:30N 59°59' E 026°45'611.5
2017-Nov-18 01:00N 59°59' E 026°34'612.6
2017-Nov-18 00:30N 59°57' E 026°22'2812.7
2017-Nov-17 22:18N 59°50' E 025°27'413.0
2017-Nov-17 22:00N 59°49' E 025°20'612.8
2017-Nov-17 21:30N 59°48' E 025°08'612.5
2017-Nov-17 21:00N 59°47' E 024°55'612.6
2017-Nov-17 20:30N 59°45' E 024°43'612.6
2017-Nov-17 20:01N 59°44' E 024°31'612.6
2017-Nov-17 19:30N 59°42' E 024°19'612.6
2017-Nov-17 19:00N 59°40' E 024°07'712.6
2017-Nov-17 18:25N 59°38' E 023°53'512.7
2017-Nov-17 18:00N 59°36' E 023°44'612.5
2017-Nov-17 17:30N 59°34' E 023°32'612.5
2017-Nov-17 17:00N 59°32' E 023°20'912.8
2017-Nov-17 16:20N 59°29' E 023°04'28513.9
2017-Nov-16 19:48N 56°05' E 016°51'414.6
2017-Nov-16 19:30N 56°02' E 016°45'714.7
2017-Nov-16 19:00N 55°59' E 016°33'714.4
2017-Nov-16 18:30N 55°56' E 016°22'714.4
2017-Nov-16 18:00N 55°52' E 016°10'714.4
2017-Nov-16 17:31N 55°49' E 015°59'714.3
2017-Nov-16 17:00N 55°45' E 015°48'714.4
2017-Nov-16 16:30N 55°42' E 015°37'714.3
2017-Nov-16 16:01N 55°39' E 015°26'714.5
2017-Nov-16 15:30N 55°35' E 015°14'714.5
2017-Nov-16 15:00N 55°32' E 015°03'714.5
2017-Nov-16 14:30N 55°28' E 014°52'714.5
2017-Nov-16 14:00N 55°25' E 014°41'714.3
2017-Nov-16 13:30N 55°20' E 014°32'714.4
2017-Nov-16 13:00N 55°14' E 014°24'713.7
2017-Nov-16 12:30N 55°11' E 014°14'2113.8
2017-Nov-16 10:59N 55°12' E 013°37'1113.9
2017-Nov-16 10:12N 55°13' E 013°18'313.9
2017-Nov-16 10:00N 55°14' E 013°13'714.3
2017-Nov-16 09:31N 55°14' E 013°01'713.6
2017-Nov-16 09:00N 55°15' E 012°49'713.3
2017-Nov-16 08:30N 55°18' E 012°38'713.0
2017-Nov-16 08:00N 55°25' E 012°40'612.7
2017-Nov-16 07:30N 55°31' E 012°42'4 8.6
2017-Nov-16 07:00N 55°35' E 012°42'4 8.0
2017-Nov-16 06:30N 55°39' E 012°41'611.9
2017-Nov-16 06:00N 55°45' E 012°41'612.4
2017-Nov-16 05:30N 55°51' E 012°41'612.7
2017-Nov-16 05:00N 55°57' E 012°38'612.2
2017-Nov-16 04:30N 56°04' E 012°38'611.5
2017-Nov-16 04:00N 56°07' E 012°30'510.6
2017-Nov-16 03:30N 56°10' E 012°22'713.1
2017-Nov-16 03:00N 56°14' E 012°13'5313.1
2017-Nov-15 22:59N 57°04' E 011°39'713.0
2017-Nov-15 22:27N 57°10' E 011°36'613.7
2017-Nov-15 22:00N 57°16' E 011°32'713.9
2017-Nov-15 21:30N 57°23' E 011°28'713.2
2017-Nov-15 21:00N 57°29' E 011°23'713.8
2017-Nov-15 20:30N 57°33' E 011°13'714.1
2017-Nov-15 20:00N 57°38' E 011°04'714.3
2017-Nov-15 19:30N 57°43' E 010°53'714.4
2017-Nov-15 19:00N 57°48' E 010°43'714.0
2017-Nov-15 18:30N 57°48' E 010°30'714.6
2017-Nov-15 18:00N 57°47' E 010°16'714.7
2017-Nov-15 17:30N 57°46' E 010°03'714.0
2017-Nov-15 16:59N 57°44' E 009°49'713.7
2017-Nov-15 16:30N 57°43' E 009°37'713.5
2017-Nov-15 16:00N 57°43' E 009°25'714.2
2017-Nov-15 15:30N 57°39' E 009°14'714.2
2017-Nov-15 14:59N 57°34' E 009°03'714.2
2017-Nov-15 14:30N 57°30' E 008°52'714.0
2017-Nov-15 14:00N 57°26' E 008°42'713.8
2017-Nov-15 13:29N 57°22' E 008°32'914.0
2017-Nov-15 12:49N 57°16' E 008°18'  
Track history (hours):
 
Tides and Currents Weather Stations Pressure Air Temp Water Temp Dewpoint Dewpoint Depression Visibility Wind Speed Wind Dir Waves Ship Positions

Azamara Quest

Last reported at 2017-Nov-24 09:30 UTC. Time now 2017-Nov-24 09:33 UTC.
Position N 54°01' E 007°57'.

Length 184 m; draft 11.1 m.

Type: Tanker. MMSI: 538005401.

Date/timePositionNaut miles runAvg speedWind from/ knotsBaromVisibWave heightAir tempDewpointWater temp
2017-Nov-24 09:30N 54°01' E 007°57'713.1
2017-Nov-24 09:00N 54°03' E 007°47'48 5.8
2017-Nov-24 00:38N 54°44' E 007°03'111.3
2017-Nov-24 00:30N 54°46' E 007°02'611.4
2017-Nov-24 00:00N 54°51' E 006°58'611.2
2017-Nov-23 23:30N 54°56' E 006°55'611.2
2017-Nov-23 23:00N 55°01' E 006°51'510.9
2017-Nov-23 22:30N 55°06' E 006°48'510.3
2017-Nov-23 22:00N 55°11' E 006°44'4 8.1
2017-Nov-23 21:30N 55°15' E 006°45'4 8.5
2017-Nov-23 21:00N 55°20' E 006°46'6 8.5
2017-Nov-23 20:21N 55°25' E 006°46'4 9.0
2017-Nov-23 19:57N 55°29' E 006°47'4 9.2
2017-Nov-23 19:30N 55°33' E 006°47'187 8.0
2017-Nov-22 20:00N 57°51' E 010°36'612.5
2017-Nov-22 19:30N 57°48' E 010°47'  
2017-Nov-20 00:06N 59°59' E 026°12'111.8
2017-Nov-20 00:00N 59°59' E 026°14'612.9
2017-Nov-19 23:30N 60°01' E 026°27'611.2
2017-Nov-19 23:01N 60°01' E 026°38'611.7
2017-Nov-19 22:30N 60°00' E 026°49'1411.5
2017-Nov-19 21:16N 60°04' E 027°17'310.7
2017-Nov-19 21:00N 60°05' E 027°22'5 9.8
2017-Nov-19 20:30N 60°08' E 027°30'612.6
2017-Nov-19 20:00N 60°11' E 027°41'510.4
2017-Nov-19 19:30N 60°11' E 027°51'611.8
2017-Nov-19 19:00N 60°10' E 028°03'612.7
2017-Nov-19 18:30N 60°08' E 028°15'510.3
2017-Nov-19 18:01N 60°08' E 028°26'510.4
2017-Nov-19 17:30N 60°09' E 028°36'510.3
2017-Nov-19 17:00N 60°12' E 028°45'4 8.9
2017-Nov-19 16:30N 60°16' E 028°47'3 6.8
2017-Nov-19 16:00N 60°19' E 028°44'0 0.1
2017-Nov-19 15:26N 60°19' E 028°44'0 0.0
2017-Nov-19 15:00N 60°19' E 028°44'0 0.0
2017-Nov-19 14:26N 60°19' E 028°44'0 0.0
2017-Nov-19 11:18N 60°19' E 028°44'0 0.0
2017-Nov-19 11:00N 60°19' E 028°44'0 0.0
2017-Nov-19 10:24N 60°19' E 028°44'0 0.0
2017-Nov-19 09:59N 60°19' E 028°44'0 0.0
2017-Nov-19 09:26N 60°19' E 028°44'0 0.0
2017-Nov-19 08:51N 60°19' E 028°44'0 0.0
2017-Nov-19 08:29N 60°19' E 028°44'0 0.0
2017-Nov-19 07:56N 60°19' E 028°44'0 0.0
2017-Nov-19 07:26N 60°19' E 028°44'0 0.0
2017-Nov-19 06:56N 60°19' E 028°44'0 0.0
2017-Nov-19 06:29N 60°19' E 028°44'0 0.0
2017-Nov-19 05:59N 60°19' E 028°44'0 0.0
2017-Nov-19 05:18N 60°19' E 028°44'0 0.0
2017-Nov-19 04:59N 60°19' E 028°44'0 0.0
2017-Nov-19 04:13N 60°19' E 028°44'0 0.0
2017-Nov-19 03:57N 60°19' E 028°44'0 0.0
2017-Nov-19 03:29N 60°19' E 028°44'0 0.0
2017-Nov-19 02:18N 60°19' E 028°44'0 0.0
2017-Nov-19 01:59N 60°19' E 028°44'0 0.0
2017-Nov-19 01:13N 60°19' E 028°44'0 0.0
2017-Nov-19 00:55N 60°19' E 028°44'0 0.0
2017-Nov-19 00:30N 60°19' E 028°44'0 0.0
2017-Nov-18 23:20N 60°19' E 028°44'0 0.0
2017-Nov-18 22:56N 60°19' E 028°44'0 0.0
2017-Nov-18 22:20N 60°19' E 028°44'0 0.0
2017-Nov-18 21:56N 60°19' E 028°44'0 0.0
2017-Nov-18 21:29N 60°19' E 028°44'0 0.0
2017-Nov-18 20:59N 60°19' E 028°44'0 0.0
2017-Nov-18 20:29N 60°19' E 028°44'0 0.0
2017-Nov-18 19:53N 60°19' E 028°44'0 0.0
2017-Nov-18 19:28N 60°19' E 028°44'0 0.0
2017-Nov-18 18:51N 60°19' E 028°44'0 0.0
2017-Nov-18 18:12N 60°19' E 028°44'0 0.0
2017-Nov-18 18:00N 60°19' E 028°44'0 0.0
2017-Nov-18 17:29N 60°19' E 028°44'0 0.0
2017-Nov-18 16:58N 60°19' E 028°44'0 0.0
2017-Nov-18 16:25N 60°19' E 028°44'0 0.0
2017-Nov-18 16:00N 60°19' E 028°44'0 0.0
2017-Nov-18 15:25N 60°19' E 028°44'0 0.0
2017-Nov-18 14:59N 60°19' E 028°44'0 0.0
2017-Nov-18 14:27N 60°19' E 028°44'0 0.0
2017-Nov-18 13:59N 60°19' E 028°44'0 0.0
2017-Nov-18 13:29N 60°19' E 028°44'0 0.0
2017-Nov-18 12:59N 60°19' E 028°44'0 0.0
2017-Nov-18 12:28N 60°19' E 028°44'0 0.0
2017-Nov-18 11:57N 60°19' E 028°44'0 0.3
2017-Nov-18 11:30N 60°19' E 028°44'2 3.8
2017-Nov-18 11:00N 60°17' E 028°45'3 6.9
2017-Nov-18 10:30N 60°14' E 028°48'4 8.8
2017-Nov-18 10:00N 60°11' E 028°43'510.8
2017-Nov-18 09:30N 60°08' E 028°34'510.3
2017-Nov-18 09:00N 60°03' E 028°33'2 4.6
2017-Nov-18 08:30N 60°01' E 028°30'0 0.1
2017-Nov-18 08:00N 60°01' E 028°30'0 0.0
2017-Nov-18 07:30N 60°01' E 028°30'0 0.0
2017-Nov-18 07:00N 60°01' E 028°30'0 0.3
2017-Nov-18 06:30N 60°01' E 028°29'2 4.3
2017-Nov-18 06:00N 60°03' E 028°26'611.4
2017-Nov-18 05:30N 60°06' E 028°18'612.2
2017-Nov-18 05:00N 60°08' E 028°06'612.5
2017-Nov-18 04:30N 60°10' E 027°54'611.6
2017-Nov-18 04:00N 60°09' E 027°42'612.5
2017-Nov-18 03:30N 60°06' E 027°31'612.6
2017-Nov-18 03:00N 60°03' E 027°21'612.7
2017-Nov-18 02:30N 59°60' E 027°10'611.7
2017-Nov-18 02:00N 59°58' E 026°58'713.4
2017-Nov-18 01:30N 59°59' E 026°45'611.5
2017-Nov-18 01:00N 59°59' E 026°34'612.6
2017-Nov-18 00:30N 59°57' E 026°22'2812.7
2017-Nov-17 22:18N 59°50' E 025°27'413.0
2017-Nov-17 22:00N 59°49' E 025°20'612.8
2017-Nov-17 21:30N 59°48' E 025°08'612.5
2017-Nov-17 21:00N 59°47' E 024°55'612.6
2017-Nov-17 20:30N 59°45' E 024°43'612.6
2017-Nov-17 20:01N 59°44' E 024°31'612.6
2017-Nov-17 19:30N 59°42' E 024°19'612.6
2017-Nov-17 19:00N 59°40' E 024°07'712.6
2017-Nov-17 18:25N 59°38' E 023°53'512.7
2017-Nov-17 18:00N 59°36' E 023°44'612.5
2017-Nov-17 17:30N 59°34' E 023°32'612.5
2017-Nov-17 17:00N 59°32' E 023°20'912.8
2017-Nov-17 16:20N 59°29' E 023°04'28513.9
2017-Nov-16 19:48N 56°05' E 016°51'414.6
2017-Nov-16 19:30N 56°02' E 016°45'714.7
2017-Nov-16 19:00N 55°59' E 016°33'714.4
2017-Nov-16 18:30N 55°56' E 016°22'714.4
2017-Nov-16 18:00N 55°52' E 016°10'714.4
2017-Nov-16 17:31N 55°49' E 015°59'714.3
2017-Nov-16 17:00N 55°45' E 015°48'714.4
2017-Nov-16 16:30N 55°42' E 015°37'714.3
2017-Nov-16 16:01N 55°39' E 015°26'714.5
2017-Nov-16 15:30N 55°35' E 015°14'714.5
2017-Nov-16 15:00N 55°32' E 015°03'714.5
2017-Nov-16 14:30N 55°28' E 014°52'714.5
2017-Nov-16 14:00N 55°25' E 014°41'714.3
2017-Nov-16 13:30N 55°20' E 014°32'714.4
2017-Nov-16 13:00N 55°14' E 014°24'713.7
2017-Nov-16 12:30N 55°11' E 014°14'2113.8
2017-Nov-16 10:59N 55°12' E 013°37'1113.9
2017-Nov-16 10:12N 55°13' E 013°18'313.9
2017-Nov-16 10:00N 55°14' E 013°13'714.3
2017-Nov-16 09:31N 55°14' E 013°01'713.6
2017-Nov-16 09:00N 55°15' E 012°49'713.3
2017-Nov-16 08:30N 55°18' E 012°38'713.0
2017-Nov-16 08:00N 55°25' E 012°40'612.7
2017-Nov-16 07:30N 55°31' E 012°42'4 8.6
2017-Nov-16 07:00N 55°35' E 012°42'4 8.0
2017-Nov-16 06:30N 55°39' E 012°41'611.9
2017-Nov-16 06:00N 55°45' E 012°41'612.4
2017-Nov-16 05:30N 55°51' E 012°41'612.7
2017-Nov-16 05:00N 55°57' E 012°38'612.2
2017-Nov-16 04:30N 56°04' E 012°38'611.5
2017-Nov-16 04:00N 56°07' E 012°30'510.6
2017-Nov-16 03:30N 56°10' E 012°22'713.1
2017-Nov-16 03:00N 56°14' E 012°13'5313.1
2017-Nov-15 22:59N 57°04' E 011°39'713.0
2017-Nov-15 22:27N 57°10' E 011°36'613.7
2017-Nov-15 22:00N 57°16' E 011°32'713.9
2017-Nov-15 21:30N 57°23' E 011°28'713.2
2017-Nov-15 21:00N 57°29' E 011°23'713.8
2017-Nov-15 20:30N 57°33' E 011°13'714.1
2017-Nov-15 20:00N 57°38' E 011°04'714.3
2017-Nov-15 19:30N 57°43' E 010°53'714.4
2017-Nov-15 19:00N 57°48' E 010°43'714.0
2017-Nov-15 18:30N 57°48' E 010°30'714.6
2017-Nov-15 18:00N 57°47' E 010°16'714.7
2017-Nov-15 17:30N 57°46' E 010°03'714.0
2017-Nov-15 16:59N 57°44' E 009°49'713.7
2017-Nov-15 16:30N 57°43' E 009°37'713.5
2017-Nov-15 16:00N 57°43' E 009°25'714.2
2017-Nov-15 15:30N 57°39' E 009°14'714.2
2017-Nov-15 14:59N 57°34' E 009°03'714.2
2017-Nov-15 14:30N 57°30' E 008°52'714.0
2017-Nov-15 14:00N 57°26' E 008°42'713.8
2017-Nov-15 13:29N 57°22' E 008°32'914.0
2017-Nov-15 12:49N 57°16' E 008°18'  

Dump ship's entire track history